sensor_id;sensor_type;location;lat;lon;timestamp;P1;durP1;ratioP1;P2;durP2;ratioP2
22205;SDS011;11272;50.104;8.754;2023-05-07T00:01:58;2.80;;;1.80;;
22205;SDS011;11272;50.104;8.754;2023-05-07T00:04:24;2.27;;;1.73;;
22205;SDS011;11272;50.104;8.754;2023-05-07T00:06:50;2.83;;;1.70;;
22205;SDS011;11272;50.104;8.754;2023-05-07T00:09:16;4.10;;;2.10;;
22205;SDS011;11272;50.104;8.754;2023-05-07T00:11:42;2.13;;;1.93;;
22205;SDS011;11272;50.104;8.754;2023-05-07T00:14:08;3.17;;;1.87;;
22205;SDS011;11272;50.104;8.754;2023-05-07T00:16:34;3.77;;;2.13;;
22205;SDS011;11272;50.104;8.754;2023-05-07T00:19:00;4.30;;;2.07;;
22205;SDS011;11272;50.104;8.754;2023-05-07T00:21:26;4.90;;;2.47;;
22205;SDS011;11272;50.104;8.754;2023-05-07T00:23:55;4.73;;;2.30;;
22205;SDS011;11272;50.104;8.754;2023-05-07T00:26:21;2.63;;;2.00;;
22205;SDS011;11272;50.104;8.754;2023-05-07T00:28:49;3.10;;;2.10;;
22205;SDS011;11272;50.104;8.754;2023-05-07T00:31:15;2.67;;;2.00;;
22205;SDS011;11272;50.104;8.754;2023-05-07T00:33:41;4.87;;;2.97;;
22205;SDS011;11272;50.104;8.754;2023-05-07T00:36:07;6.40;;;4.53;;
22205;SDS011;11272;50.104;8.754;2023-05-07T00:38:33;6.37;;;2.50;;
22205;SDS011;11272;50.104;8.754;2023-05-07T00:40:59;2.87;;;2.43;;
22205;SDS011;11272;50.104;8.754;2023-05-07T00:43:25;2.60;;;2.13;;
22205;SDS011;11272;50.104;8.754;2023-05-07T00:45:53;4.57;;;2.30;;
22205;SDS011;11272;50.104;8.754;2023-05-07T00:48:19;4.60;;;2.03;;
22205;SDS011;11272;50.104;8.754;2023-05-07T00:50:45;3.53;;;2.00;;
22205;SDS011;11272;50.104;8.754;2023-05-07T00:53:12;2.33;;;1.90;;
22205;SDS011;11272;50.104;8.754;2023-05-07T00:55:39;2.37;;;2.10;;
22205;SDS011;11272;50.104;8.754;2023-05-07T00:58:05;3.83;;;2.50;;
22205;SDS011;11272;50.104;8.754;2023-05-07T01:00:32;4.87;;;2.50;;
22205;SDS011;11272;50.104;8.754;2023-05-07T01:02:58;5.80;;;2.30;;
22205;SDS011;11272;50.104;8.754;2023-05-07T01:05:24;2.63;;;2.00;;
22205;SDS011;11272;50.104;8.754;2023-05-07T01:07:52;4.13;;;2.13;;
22205;SDS011;11272;50.104;8.754;2023-05-07T01:10:20;3.53;;;2.43;;
22205;SDS011;11272;50.104;8.754;2023-05-07T01:12:47;4.10;;;2.60;;
22205;SDS011;11272;50.104;8.754;2023-05-07T01:15:15;3.33;;;2.30;;
22205;SDS011;11272;50.104;8.754;2023-05-07T01:17:43;7.00;;;2.40;;
22205;SDS011;11272;50.104;8.754;2023-05-07T01:20:17;3.13;;;2.20;;
22205;SDS011;11272;50.104;8.754;2023-05-07T01:22:46;6.37;;;2.10;;
22205;SDS011;11272;50.104;8.754;2023-05-07T01:25:13;3.37;;;2.50;;
22205;SDS011;11272;50.104;8.754;2023-05-07T01:27:46;4.73;;;2.60;;
22205;SDS011;11272;50.104;8.754;2023-05-07T01:30:12;3.70;;;2.40;;
22205;SDS011;11272;50.104;8.754;2023-05-07T01:35:18;5.47;;;2.90;;
22205;SDS011;11272;50.104;8.754;2023-05-07T01:37:47;4.23;;;2.63;;
22205;SDS011;11272;50.104;8.754;2023-05-07T01:40:15;2.57;;;2.20;;
22205;SDS011;11272;50.104;8.754;2023-05-07T01:42:43;4.37;;;2.43;;
22205;SDS011;11272;50.104;8.754;2023-05-07T01:45:09;5.90;;;3.80;;
22205;SDS011;11272;50.104;8.754;2023-05-07T01:47:36;2.80;;;2.43;;
22205;SDS011;11272;50.104;8.754;2023-05-07T01:50:04;5.13;;;2.50;;
22205;SDS011;11272;50.104;8.754;2023-05-07T01:52:31;4.43;;;2.50;;
22205;SDS011;11272;50.104;8.754;2023-05-07T01:54:57;6.77;;;2.50;;
22205;SDS011;11272;50.104;8.754;2023-05-07T01:57:23;6.63;;;2.70;;
22205;SDS011;11272;50.104;8.754;2023-05-07T01:59:49;3.47;;;2.60;;
22205;SDS011;11272;50.104;8.754;2023-05-07T02:02:15;3.30;;;2.33;;
22205;SDS011;11272;50.104;8.754;2023-05-07T02:04:43;2.73;;;2.27;;
22205;SDS011;11272;50.104;8.754;2023-05-07T02:07:09;3.97;;;2.60;;
22205;SDS011;11272;50.104;8.754;2023-05-07T02:09:36;4.70;;;2.77;;
22205;SDS011;11272;50.104;8.754;2023-05-07T02:12:02;5.60;;;3.20;;
22205;SDS011;11272;50.104;8.754;2023-05-07T02:17:13;2.50;;;1.93;;
22205;SDS011;11272;50.104;8.754;2023-05-07T02:19:38;3.70;;;2.20;;
22205;SDS011;11272;50.104;8.754;2023-05-07T02:22:04;5.30;;;2.30;;
22205;SDS011;11272;50.104;8.754;2023-05-07T02:24:30;6.87;;;2.23;;
22205;SDS011;11272;50.104;8.754;2023-05-07T02:26:56;5.57;;;2.63;;
22205;SDS011;11272;50.104;8.754;2023-05-07T02:29:22;2.87;;;2.07;;
22205;SDS011;11272;50.104;8.754;2023-05-07T02:31:48;4.90;;;2.00;;
22205;SDS011;11272;50.104;8.754;2023-05-07T02:34:16;3.97;;;2.27;;
22205;SDS011;11272;50.104;8.754;2023-05-07T02:36:42;2.23;;;2.00;;
22205;SDS011;11272;50.104;8.754;2023-05-07T02:39:11;3.33;;;2.20;;
22205;SDS011;11272;50.104;8.754;2023-05-07T02:41:38;3.90;;;2.30;;
22205;SDS011;11272;50.104;8.754;2023-05-07T02:44:03;5.07;;;2.43;;
22205;SDS011;11272;50.104;8.754;2023-05-07T02:46:30;3.77;;;2.33;;
22205;SDS011;11272;50.104;8.754;2023-05-07T02:49:00;3.13;;;2.20;;
22205;SDS011;11272;50.104;8.754;2023-05-07T02:51:26;3.73;;;2.53;;
22205;SDS011;11272;50.104;8.754;2023-05-07T02:53:54;3.53;;;2.27;;
22205;SDS011;11272;50.104;8.754;2023-05-07T02:56:21;3.60;;;2.20;;
22205;SDS011;11272;50.104;8.754;2023-05-07T02:58:47;2.70;;;2.33;;
22205;SDS011;11272;50.104;8.754;2023-05-07T03:04:32;3.17;;;2.40;;
22205;SDS011;11272;50.104;8.754;2023-05-07T03:06:58;4.27;;;2.50;;
22205;SDS011;11272;50.104;8.754;2023-05-07T03:09:23;2.47;;;1.80;;
22205;SDS011;11272;50.104;8.754;2023-05-07T03:11:49;3.40;;;2.37;;
22205;SDS011;11272;50.104;8.754;2023-05-07T03:14:15;4.00;;;2.40;;
22205;SDS011;11272;50.104;8.754;2023-05-07T03:16:40;2.87;;;2.30;;
22205;SDS011;11272;50.104;8.754;2023-05-07T03:19:06;3.57;;;2.27;;
22205;SDS011;11272;50.104;8.754;2023-05-07T03:21:31;2.67;;;2.20;;
22205;SDS011;11272;50.104;8.754;2023-05-07T03:23:59;2.30;;;2.10;;
22205;SDS011;11272;50.104;8.754;2023-05-07T03:26:25;3.37;;;2.30;;
22205;SDS011;11272;50.104;8.754;2023-05-07T03:28:51;4.10;;;2.30;;
22205;SDS011;11272;50.104;8.754;2023-05-07T03:31:17;4.93;;;2.50;;
22205;SDS011;11272;50.104;8.754;2023-05-07T03:33:56;3.30;;;2.07;;
22205;SDS011;11272;50.104;8.754;2023-05-07T03:36:23;2.80;;;2.50;;
22205;SDS011;11272;50.104;8.754;2023-05-07T03:38:49;3.77;;;1.87;;
22205;SDS011;11272;50.104;8.754;2023-05-07T03:41:18;4.50;;;2.20;;
22205;SDS011;11272;50.104;8.754;2023-05-07T03:43:45;3.53;;;2.43;;
22205;SDS011;11272;50.104;8.754;2023-05-07T03:46:11;3.40;;;1.93;;
22205;SDS011;11272;50.104;8.754;2023-05-07T03:48:37;2.37;;;1.83;;
22205;SDS011;11272;50.104;8.754;2023-05-07T03:51:06;2.37;;;1.90;;
22205;SDS011;11272;50.104;8.754;2023-05-07T03:53:32;2.50;;;1.90;;
22205;SDS011;11272;50.104;8.754;2023-05-07T03:55:58;2.93;;;2.30;;
22205;SDS011;11272;50.104;8.754;2023-05-07T03:58:24;5.83;;;2.23;;
22205;SDS011;11272;50.104;8.754;2023-05-07T04:00:55;3.60;;;2.40;;
22205;SDS011;11272;50.104;8.754;2023-05-07T04:03:25;3.23;;;2.30;;
22205;SDS011;11272;50.104;8.754;2023-05-07T04:05:51;3.30;;;1.83;;
22205;SDS011;11272;50.104;8.754;2023-05-07T04:08:17;2.47;;;2.00;;
22205;SDS011;11272;50.104;8.754;2023-05-07T04:10:46;2.53;;;2.10;;
22205;SDS011;11272;50.104;8.754;2023-05-07T04:13:12;3.90;;;2.10;;
22205;SDS011;11272;50.104;8.754;2023-05-07T04:15:38;2.67;;;1.90;;
22205;SDS011;11272;50.104;8.754;2023-05-07T04:18:07;4.97;;;2.17;;
22205;SDS011;11272;50.104;8.754;2023-05-07T04:20:34;2.43;;;2.10;;
22205;SDS011;11272;50.104;8.754;2023-05-07T04:23:02;2.50;;;2.00;;
22205;SDS011;11272;50.104;8.754;2023-05-07T04:25:29;2.93;;;2.30;;
22205;SDS011;11272;50.104;8.754;2023-05-07T04:28:01;4.10;;;2.10;;
22205;SDS011;11272;50.104;8.754;2023-05-07T04:30:28;2.30;;;2.10;;
22205;SDS011;11272;50.104;8.754;2023-05-07T04:32:54;3.97;;;2.20;;
22205;SDS011;11272;50.104;8.754;2023-05-07T04:35:20;3.30;;;2.10;;
22205;SDS011;11272;50.104;8.754;2023-05-07T04:37:46;2.47;;;1.77;;
22205;SDS011;11272;50.104;8.754;2023-05-07T04:40:13;4.60;;;2.00;;
22205;SDS011;11272;50.104;8.754;2023-05-07T04:42:39;3.37;;;1.97;;
22205;SDS011;11272;50.104;8.754;2023-05-07T04:45:05;3.23;;;2.00;;
22205;SDS011;11272;50.104;8.754;2023-05-07T04:47:34;5.53;;;2.17;;
22205;SDS011;11272;50.104;8.754;2023-05-07T04:50:04;3.43;;;2.20;;
22205;SDS011;11272;50.104;8.754;2023-05-07T04:52:31;2.60;;;2.00;;
22205;SDS011;11272;50.104;8.754;2023-05-07T04:55:01;6.60;;;2.30;;
22205;SDS011;11272;50.104;8.754;2023-05-07T04:57:31;2.90;;;2.13;;
22205;SDS011;11272;50.104;8.754;2023-05-07T04:59:58;2.90;;;2.10;;
22205;SDS011;11272;50.104;8.754;2023-05-07T05:02:25;3.60;;;2.03;;
22205;SDS011;11272;50.104;8.754;2023-05-07T05:04:50;3.13;;;2.20;;
22205;SDS011;11272;50.104;8.754;2023-05-07T05:07:22;2.10;;;1.90;;
22205;SDS011;11272;50.104;8.754;2023-05-07T05:09:47;3.03;;;2.13;;
22205;SDS011;11272;50.104;8.754;2023-05-07T05:12:13;3.50;;;2.07;;
22205;SDS011;11272;50.104;8.754;2023-05-07T05:14:40;2.50;;;2.20;;
22205;SDS011;11272;50.104;8.754;2023-05-07T05:17:07;3.90;;;2.17;;
22205;SDS011;11272;50.104;8.754;2023-05-07T05:19:34;3.10;;;2.30;;
22205;SDS011;11272;50.104;8.754;2023-05-07T05:22:00;2.40;;;2.00;;
22205;SDS011;11272;50.104;8.754;2023-05-07T05:24:30;4.53;;;2.37;;
22205;SDS011;11272;50.104;8.754;2023-05-07T05:26:56;3.37;;;2.40;;
22205;SDS011;11272;50.104;8.754;2023-05-07T05:29:23;5.37;;;2.37;;
22205;SDS011;11272;50.104;8.754;2023-05-07T05:31:49;2.67;;;2.03;;
22205;SDS011;11272;50.104;8.754;2023-05-07T05:34:14;5.37;;;2.20;;
22205;SDS011;11272;50.104;8.754;2023-05-07T05:36:42;3.73;;;2.33;;
22205;SDS011;11272;50.104;8.754;2023-05-07T05:39:11;2.47;;;2.23;;
22205;SDS011;11272;50.104;8.754;2023-05-07T05:41:37;3.47;;;2.43;;
22205;SDS011;11272;50.104;8.754;2023-05-07T05:44:03;4.10;;;2.30;;
22205;SDS011;11272;50.104;8.754;2023-05-07T05:46:29;4.47;;;2.70;;
22205;SDS011;11272;50.104;8.754;2023-05-07T05:49:13;3.07;;;2.50;;
22205;SDS011;11272;50.104;8.754;2023-05-07T05:51:40;3.10;;;2.37;;
22205;SDS011;11272;50.104;8.754;2023-05-07T05:54:05;2.80;;;2.50;;
22205;SDS011;11272;50.104;8.754;2023-05-07T05:56:34;2.40;;;2.20;;
22205;SDS011;11272;50.104;8.754;2023-05-07T05:59:00;3.77;;;2.70;;
22205;SDS011;11272;50.104;8.754;2023-05-07T06:01:27;3.20;;;2.90;;
22205;SDS011;11272;50.104;8.754;2023-05-07T06:03:55;3.10;;;2.70;;
22205;SDS011;11272;50.104;8.754;2023-05-07T06:06:21;4.03;;;2.60;;
22205;SDS011;11272;50.104;8.754;2023-05-07T06:08:47;3.77;;;2.73;;
22205;SDS011;11272;50.104;8.754;2023-05-07T06:11:17;4.30;;;2.30;;
22205;SDS011;11272;50.104;8.754;2023-05-07T06:13:45;4.87;;;2.37;;
22205;SDS011;11272;50.104;8.754;2023-05-07T06:16:14;5.30;;;2.70;;
22205;SDS011;11272;50.104;8.754;2023-05-07T06:18:40;2.97;;;2.20;;
22205;SDS011;11272;50.104;8.754;2023-05-07T06:21:09;3.10;;;2.73;;
22205;SDS011;11272;50.104;8.754;2023-05-07T06:23:35;2.80;;;2.60;;
22205;SDS011;11272;50.104;8.754;2023-05-07T06:26:01;2.90;;;2.40;;
22205;SDS011;11272;50.104;8.754;2023-05-07T06:28:33;4.77;;;2.60;;
22205;SDS011;11272;50.104;8.754;2023-05-07T06:31:12;3.40;;;2.77;;
22205;SDS011;11272;50.104;8.754;2023-05-07T06:33:40;2.80;;;2.20;;
22205;SDS011;11272;50.104;8.754;2023-05-07T06:36:10;4.43;;;2.27;;
22205;SDS011;11272;50.104;8.754;2023-05-07T06:38:35;3.57;;;2.80;;
22205;SDS011;11272;50.104;8.754;2023-05-07T06:41:01;5.60;;;2.87;;
22205;SDS011;11272;50.104;8.754;2023-05-07T06:43:27;3.73;;;2.60;;
22205;SDS011;11272;50.104;8.754;2023-05-07T06:46:21;4.23;;;2.43;;
22205;SDS011;11272;50.104;8.754;2023-05-07T06:48:47;3.73;;;2.60;;
22205;SDS011;11272;50.104;8.754;2023-05-07T06:51:13;3.60;;;2.60;;
22205;SDS011;11272;50.104;8.754;2023-05-07T06:53:39;5.43;;;2.87;;
22205;SDS011;11272;50.104;8.754;2023-05-07T06:56:05;3.43;;;2.53;;
22205;SDS011;11272;50.104;8.754;2023-05-07T06:58:31;3.53;;;2.60;;
22205;SDS011;11272;50.104;8.754;2023-05-07T07:00:59;3.73;;;2.50;;
22205;SDS011;11272;50.104;8.754;2023-05-07T07:03:25;2.87;;;2.67;;
22205;SDS011;11272;50.104;8.754;2023-05-07T07:05:54;6.07;;;2.80;;
22205;SDS011;11272;50.104;8.754;2023-05-07T07:08:20;3.77;;;3.00;;
22205;SDS011;11272;50.104;8.754;2023-05-07T07:10:47;3.10;;;2.80;;
22205;SDS011;11272;50.104;8.754;2023-05-07T07:13:13;4.33;;;3.00;;
22205;SDS011;11272;50.104;8.754;2023-05-07T07:15:39;5.17;;;3.00;;
22205;SDS011;11272;50.104;8.754;2023-05-07T07:18:05;4.00;;;2.90;;
22205;SDS011;11272;50.104;8.754;2023-05-07T07:20:31;3.63;;;2.93;;
22205;SDS011;11272;50.104;8.754;2023-05-07T07:22:57;3.10;;;2.73;;
22205;SDS011;11272;50.104;8.754;2023-05-07T07:25:23;4.97;;;2.67;;
22205;SDS011;11272;50.104;8.754;2023-05-07T07:27:49;5.57;;;2.40;;
22205;SDS011;11272;50.104;8.754;2023-05-07T07:30:15;4.23;;;2.80;;
22205;SDS011;11272;50.104;8.754;2023-05-07T07:32:45;2.77;;;2.50;;
22205;SDS011;11272;50.104;8.754;2023-05-07T07:35:12;3.50;;;2.57;;
22205;SDS011;11272;50.104;8.754;2023-05-07T07:37:41;7.07;;;3.33;;
22205;SDS011;11272;50.104;8.754;2023-05-07T07:40:06;2.50;;;2.30;;
22205;SDS011;11272;50.104;8.754;2023-05-07T07:42:33;2.93;;;2.60;;
22205;SDS011;11272;50.104;8.754;2023-05-07T07:45:00;3.97;;;2.90;;
22205;SDS011;11272;50.104;8.754;2023-05-07T07:47:30;3.67;;;2.60;;
22205;SDS011;11272;50.104;8.754;2023-05-07T07:49:56;8.47;;;2.87;;
22205;SDS011;11272;50.104;8.754;2023-05-07T07:52:22;2.77;;;2.47;;
22205;SDS011;11272;50.104;8.754;2023-05-07T07:54:48;3.10;;;2.50;;
22205;SDS011;11272;50.104;8.754;2023-05-07T07:57:14;3.67;;;2.17;;
22205;SDS011;11272;50.104;8.754;2023-05-07T07:59:40;5.43;;;2.77;;
22205;SDS011;11272;50.104;8.754;2023-05-07T08:02:09;3.73;;;2.80;;
22205;SDS011;11272;50.104;8.754;2023-05-07T08:04:35;3.87;;;2.60;;
22205;SDS011;11272;50.104;8.754;2023-05-07T08:07:04;3.47;;;2.83;;
22205;SDS011;11272;50.104;8.754;2023-05-07T08:09:32;4.27;;;2.50;;
22205;SDS011;11272;50.104;8.754;2023-05-07T08:12:00;3.33;;;2.70;;
22205;SDS011;11272;50.104;8.754;2023-05-07T08:14:28;5.13;;;3.13;;
22205;SDS011;11272;50.104;8.754;2023-05-07T08:16:54;3.17;;;2.80;;
22205;SDS011;11272;50.104;8.754;2023-05-07T08:19:20;2.90;;;2.70;;
22205;SDS011;11272;50.104;8.754;2023-05-07T08:21:47;3.20;;;2.90;;
22205;SDS011;11272;50.104;8.754;2023-05-07T08:24:17;3.03;;;2.60;;
22205;SDS011;11272;50.104;8.754;2023-05-07T08:26:44;3.30;;;2.97;;
22205;SDS011;11272;50.104;8.754;2023-05-07T08:29:10;4.07;;;2.67;;
22205;SDS011;11272;50.104;8.754;2023-05-07T08:31:36;4.27;;;2.70;;
22205;SDS011;11272;50.104;8.754;2023-05-07T08:34:03;4.33;;;3.10;;
22205;SDS011;11272;50.104;8.754;2023-05-07T08:36:32;4.33;;;3.13;;
22205;SDS011;11272;50.104;8.754;2023-05-07T08:38:59;3.97;;;2.87;;
22205;SDS011;11272;50.104;8.754;2023-05-07T08:41:27;4.57;;;3.27;;
22205;SDS011;11272;50.104;8.754;2023-05-07T08:43:53;7.13;;;3.10;;
22205;SDS011;11272;50.104;8.754;2023-05-07T08:46:23;3.30;;;3.00;;
22205;SDS011;11272;50.104;8.754;2023-05-07T08:48:54;3.90;;;3.20;;
22205;SDS011;11272;50.104;8.754;2023-05-07T08:51:20;4.70;;;2.80;;
22205;SDS011;11272;50.104;8.754;2023-05-07T08:53:47;3.60;;;3.00;;
22205;SDS011;11272;50.104;8.754;2023-05-07T08:56:24;5.17;;;3.23;;
22205;SDS011;11272;50.104;8.754;2023-05-07T08:58:51;3.57;;;3.10;;
22205;SDS011;11272;50.104;8.754;2023-05-07T09:01:22;4.17;;;3.10;;
22205;SDS011;11272;50.104;8.754;2023-05-07T09:03:50;3.90;;;3.17;;
22205;SDS011;11272;50.104;8.754;2023-05-07T09:06:17;4.63;;;3.10;;
22205;SDS011;11272;50.104;8.754;2023-05-07T09:08:50;4.27;;;3.47;;
22205;SDS011;11272;50.104;8.754;2023-05-07T09:11:19;3.23;;;2.97;;
22205;SDS011;11272;50.104;8.754;2023-05-07T09:13:48;8.37;;;2.80;;
22205;SDS011;11272;50.104;8.754;2023-05-07T09:16:18;5.90;;;3.03;;
22205;SDS011;11272;50.104;8.754;2023-05-07T09:18:48;3.37;;;3.07;;
22205;SDS011;11272;50.104;8.754;2023-05-07T09:21:17;5.30;;;2.90;;
22205;SDS011;11272;50.104;8.754;2023-05-07T09:23:45;5.50;;;3.10;;
22205;SDS011;11272;50.104;8.754;2023-05-07T09:26:14;4.40;;;3.30;;
22205;SDS011;11272;50.104;8.754;2023-05-07T09:28:41;3.10;;;2.80;;
22205;SDS011;11272;50.104;8.754;2023-05-07T09:31:10;3.30;;;3.00;;
22205;SDS011;11272;50.104;8.754;2023-05-07T09:33:37;7.28;;;3.00;;
22205;SDS011;11272;50.104;8.754;2023-05-07T09:36:05;3.83;;;2.90;;
22205;SDS011;11272;50.104;8.754;2023-05-07T09:38:32;3.65;;;2.90;;
22205;SDS011;11272;50.104;8.754;2023-05-07T09:41:06;4.68;;;2.80;;
22205;SDS011;11272;50.104;8.754;2023-05-07T09:43:41;3.65;;;3.20;;
22205;SDS011;11272;50.104;8.754;2023-05-07T09:46:11;4.55;;;2.75;;
22205;SDS011;11272;50.104;8.754;2023-05-07T09:48:43;3.40;;;3.10;;
22205;SDS011;11272;50.104;8.754;2023-05-07T09:51:56;2.90;;;2.60;;
22205;SDS011;11272;50.104;8.754;2023-05-07T09:54:04;4.00;;;2.80;;
22205;SDS011;11272;50.104;8.754;2023-05-07T09:56:34;5.35;;;2.90;;
22205;SDS011;11272;50.104;8.754;2023-05-07T09:59:03;3.22;;;2.92;;
22205;SDS011;11272;50.104;8.754;2023-05-07T10:01:32;5.38;;;3.05;;
22205;SDS011;11272;50.104;8.754;2023-05-07T10:04:02;2.53;;;2.33;;
22205;SDS011;11272;50.104;8.754;2023-05-07T10:06:31;3.88;;;2.70;;
22205;SDS011;11272;50.104;8.754;2023-05-07T10:08:58;4.65;;;3.00;;
22205;SDS011;11272;50.104;8.754;2023-05-07T10:11:24;3.08;;;2.40;;
22205;SDS011;11272;50.104;8.754;2023-05-07T10:13:50;3.90;;;2.47;;
22205;SDS011;11272;50.104;8.754;2023-05-07T10:16:18;3.30;;;2.60;;
22205;SDS011;11272;50.104;8.754;2023-05-07T10:18:47;5.90;;;2.90;;
22205;SDS011;11272;50.104;8.754;2023-05-07T10:21:18;2.60;;;2.33;;
22205;SDS011;11272;50.104;8.754;2023-05-07T10:23:49;3.50;;;2.65;;
22205;SDS011;11272;50.104;8.754;2023-05-07T10:26:42;3.38;;;2.65;;
22205;SDS011;11272;50.104;8.754;2023-05-07T10:29:33;2.60;;;2.40;;
22205;SDS011;11272;50.104;8.754;2023-05-07T10:32:47;4.53;;;2.78;;
22205;SDS011;11272;50.104;8.754;2023-05-07T10:35:02;2.92;;;2.38;;
22205;SDS011;11272;50.104;8.754;2023-05-07T10:37:32;3.67;;;2.30;;
22205;SDS011;11272;50.104;8.754;2023-05-07T10:39:59;2.88;;;2.58;;
22205;SDS011;11272;50.104;8.754;2023-05-07T10:42:26;2.63;;;2.20;;
22205;SDS011;11272;50.104;8.754;2023-05-07T10:44:54;3.53;;;2.67;;
22205;SDS011;11272;50.104;8.754;2023-05-07T10:47:24;4.00;;;2.50;;
22205;SDS011;11272;50.104;8.754;2023-05-07T10:52:34;3.38;;;2.60;;
22205;SDS011;11272;50.104;8.754;2023-05-07T10:57:47;2.67;;;2.47;;
22205;SDS011;11272;50.104;8.754;2023-05-07T11:08:19;3.10;;;2.17;;
22205;SDS011;11272;50.104;8.754;2023-05-07T11:11:05;4.03;;;2.10;;
22205;SDS011;11272;50.104;8.754;2023-05-07T11:16:22;2.08;;;1.88;;
22205;SDS011;11272;50.104;8.754;2023-05-07T11:18:55;2.80;;;2.30;;
22205;SDS011;11272;50.104;8.754;2023-05-07T11:21:32;3.78;;;2.35;;
22205;SDS011;11272;50.104;8.754;2023-05-07T11:24:10;4.00;;;2.30;;
22205;SDS011;11272;50.104;8.754;2023-05-07T11:26:48;3.17;;;2.20;;
22205;SDS011;11272;50.104;8.754;2023-05-07T11:29:19;3.85;;;2.25;;
22205;SDS011;11272;50.104;8.754;2023-05-07T11:31:48;3.25;;;2.22;;
22205;SDS011;11272;50.104;8.754;2023-05-07T11:34:26;7.90;;;2.50;;
22205;SDS011;11272;50.104;8.754;2023-05-07T11:36:54;3.25;;;2.17;;
22205;SDS011;11272;50.104;8.754;2023-05-07T11:39:29;3.35;;;2.03;;
22205;SDS011;11272;50.104;8.754;2023-05-07T11:42:01;3.47;;;2.17;;
22205;SDS011;11272;50.104;8.754;2023-05-07T11:44:46;2.13;;;1.92;;
22205;SDS011;11272;50.104;8.754;2023-05-07T11:47:17;3.08;;;2.47;;
22205;SDS011;11272;50.104;8.754;2023-05-07T11:49:43;3.00;;;2.35;;
22205;SDS011;11272;50.104;8.754;2023-05-07T11:52:12;2.22;;;1.83;;
22205;SDS011;11272;50.104;8.754;2023-05-07T11:54:38;4.40;;;2.45;;
22205;SDS011;11272;50.104;8.754;2023-05-07T11:57:03;7.57;;;2.30;;
22205;SDS011;11272;50.104;8.754;2023-05-07T11:59:29;1.70;;;1.60;;
22205;SDS011;11272;50.104;8.754;2023-05-07T12:01:57;2.50;;;1.80;;
22205;SDS011;11272;50.104;8.754;2023-05-07T12:04:24;3.22;;;1.80;;
22205;SDS011;11272;50.104;8.754;2023-05-07T12:06:53;2.33;;;1.92;;
22205;SDS011;11272;50.104;8.754;2023-05-07T12:09:21;3.00;;;2.03;;
22205;SDS011;11272;50.104;8.754;2023-05-07T12:11:46;3.97;;;2.20;;
22205;SDS011;11272;50.104;8.754;2023-05-07T12:14:18;1.65;;;1.45;;
22205;SDS011;11272;50.104;8.754;2023-05-07T12:16:44;2.75;;;1.80;;
22205;SDS011;11272;50.104;8.754;2023-05-07T12:19:10;2.00;;;1.80;;
22205;SDS011;11272;50.104;8.754;2023-05-07T12:21:39;3.75;;;1.90;;
22205;SDS011;11272;50.104;8.754;2023-05-07T12:24:05;3.78;;;2.15;;
22205;SDS011;11272;50.104;8.754;2023-05-07T12:26:31;3.35;;;1.90;;
22205;SDS011;11272;50.104;8.754;2023-05-07T12:28:57;4.13;;;1.92;;
22205;SDS011;11272;50.104;8.754;2023-05-07T12:31:25;2.08;;;1.65;;
22205;SDS011;11272;50.104;8.754;2023-05-07T12:33:51;1.60;;;1.50;;
22205;SDS011;11272;50.104;8.754;2023-05-07T12:36:16;4.57;;;1.40;;
22205;SDS011;11272;50.104;8.754;2023-05-07T12:38:42;3.00;;;1.45;;
22205;SDS011;11272;50.104;8.754;2023-05-07T12:41:08;1.60;;;1.40;;
22205;SDS011;11272;50.104;8.754;2023-05-07T12:43:38;2.35;;;1.85;;
22205;SDS011;11272;50.104;8.754;2023-05-07T12:46:05;3.45;;;1.83;;
22205;SDS011;11272;50.104;8.754;2023-05-07T12:48:31;4.18;;;1.80;;
22205;SDS011;11272;50.104;8.754;2023-05-07T12:50:58;6.35;;;2.17;;
22205;SDS011;11272;50.104;8.754;2023-05-07T12:53:26;3.92;;;1.73;;
22205;SDS011;11272;50.104;8.754;2023-05-07T12:55:56;3.15;;;1.73;;
22205;SDS011;11272;50.104;8.754;2023-05-07T12:58:30;2.40;;;1.80;;
22205;SDS011;11272;50.104;8.754;2023-05-07T13:01:07;3.45;;;1.80;;
22205;SDS011;11272;50.104;8.754;2023-05-07T13:03:35;4.07;;;2.00;;
22205;SDS011;11272;50.104;8.754;2023-05-07T13:06:03;3.50;;;1.55;;
22205;SDS011;11272;50.104;8.754;2023-05-07T13:08:32;2.30;;;1.83;;
22205;SDS011;11272;50.104;8.754;2023-05-07T13:11:03;2.28;;;1.90;;
22205;SDS011;11272;50.104;8.754;2023-05-07T13:13:33;4.40;;;1.73;;
22205;SDS011;11272;50.104;8.754;2023-05-07T13:16:00;3.08;;;1.80;;
22205;SDS011;11272;50.104;8.754;2023-05-07T13:18:26;2.42;;;1.92;;
22205;SDS011;11272;50.104;8.754;2023-05-07T13:20:53;2.38;;;1.60;;
22205;SDS011;11272;50.104;8.754;2023-05-07T13:23:19;2.92;;;1.40;;
22205;SDS011;11272;50.104;8.754;2023-05-07T13:25:44;2.97;;;1.40;;
22205;SDS011;11272;50.104;8.754;2023-05-07T13:28:10;2.60;;;1.60;;
22205;SDS011;11272;50.104;8.754;2023-05-07T13:30:36;2.25;;;1.67;;
22205;SDS011;11272;50.104;8.754;2023-05-07T13:33:02;2.97;;;1.67;;
22205;SDS011;11272;50.104;8.754;2023-05-07T13:35:27;2.55;;;1.92;;
22205;SDS011;11272;50.104;8.754;2023-05-07T13:37:53;3.22;;;1.83;;
22205;SDS011;11272;50.104;8.754;2023-05-07T13:40:20;1.20;;;1.10;;
22205;SDS011;11272;50.104;8.754;2023-05-07T13:42:50;3.20;;;1.35;;
22205;SDS011;11272;50.104;8.754;2023-05-07T13:45:16;2.85;;;1.63;;
22205;SDS011;11272;50.104;8.754;2023-05-07T13:47:43;2.42;;;2.22;;
22205;SDS011;11272;50.104;8.754;2023-05-07T13:50:10;2.50;;;2.30;;
22205;SDS011;11272;50.104;8.754;2023-05-07T13:52:37;3.47;;;2.35;;
22205;SDS011;11272;50.104;8.754;2023-05-07T13:55:05;4.65;;;2.22;;
22205;SDS011;11272;50.104;8.754;2023-05-07T13:57:31;2.45;;;1.95;;
22205;SDS011;11272;50.104;8.754;2023-05-07T14:00:00;3.08;;;2.25;;
22205;SDS011;11272;50.104;8.754;2023-05-07T14:02:25;2.67;;;1.83;;
22205;SDS011;11272;50.104;8.754;2023-05-07T14:04:51;2.50;;;2.30;;
22205;SDS011;11272;50.104;8.754;2023-05-07T14:07:16;5.32;;;2.30;;
22205;SDS011;11272;50.104;8.754;2023-05-07T14:09:42;2.95;;;2.05;;
22205;SDS011;11272;50.104;8.754;2023-05-07T14:12:07;4.28;;;2.55;;
22205;SDS011;11272;50.104;8.754;2023-05-07T14:14:35;2.60;;;2.33;;
22205;SDS011;11272;50.104;8.754;2023-05-07T14:17:01;3.85;;;2.40;;
22205;SDS011;11272;50.104;8.754;2023-05-07T14:19:26;2.92;;;2.38;;
22205;SDS011;11272;50.104;8.754;2023-05-07T14:21:52;4.00;;;2.38;;
22205;SDS011;11272;50.104;8.754;2023-05-07T14:24:17;4.60;;;2.33;;
22205;SDS011;11272;50.104;8.754;2023-05-07T14:26:43;4.53;;;2.25;;
22205;SDS011;11272;50.104;8.754;2023-05-07T14:29:08;3.30;;;2.63;;
22205;SDS011;11272;50.104;8.754;2023-05-07T14:31:34;3.08;;;2.42;;
22205;SDS011;11272;50.104;8.754;2023-05-07T14:34:01;2.88;;;2.58;;
22205;SDS011;11272;50.104;8.754;2023-05-07T14:36:28;5.07;;;2.40;;
22205;SDS011;11272;50.104;8.754;2023-05-07T14:38:55;2.50;;;2.25;;
22205;SDS011;11272;50.104;8.754;2023-05-07T14:41:22;4.70;;;2.10;;
22205;SDS011;11272;50.104;8.754;2023-05-07T14:43:47;4.28;;;2.25;;
22205;SDS011;11272;50.104;8.754;2023-05-07T14:46:16;3.05;;;2.50;;
22205;SDS011;11272;50.104;8.754;2023-05-07T14:48:43;3.15;;;2.25;;
22205;SDS011;11272;50.104;8.754;2023-05-07T14:51:13;3.05;;;2.00;;
22205;SDS011;11272;50.104;8.754;2023-05-07T14:53:40;2.30;;;2.08;;
22205;SDS011;11272;50.104;8.754;2023-05-07T14:56:07;2.75;;;2.03;;
22205;SDS011;11272;50.104;8.754;2023-05-07T14:58:33;3.92;;;2.05;;
22205;SDS011;11272;50.104;8.754;2023-05-07T15:00:59;2.22;;;1.90;;
22205;SDS011;11272;50.104;8.754;2023-05-07T15:03:25;4.38;;;1.90;;
22205;SDS011;11272;50.104;8.754;2023-05-07T15:05:51;3.05;;;2.10;;
22205;SDS011;11272;50.104;8.754;2023-05-07T15:08:17;2.70;;;2.22;;
22205;SDS011;11272;50.104;8.754;2023-05-07T15:10:43;3.60;;;2.50;;
22205;SDS011;11272;50.104;8.754;2023-05-07T15:13:09;4.95;;;3.38;;
22205;SDS011;11272;50.104;8.754;2023-05-07T15:15:35;5.60;;;3.67;;
22205;SDS011;11272;50.104;8.754;2023-05-07T15:18:03;2.55;;;2.35;;